sensor_id;sensor_type;location;lat;lon;timestamp;P1;durP1;ratioP1;P2;durP2;ratioP2
53034;SDS011;38923;53.236;6.506;2022-10-31T00:01:00;23.42;;;13.07;;
53034;SDS011;38923;53.236;6.506;2022-10-31T00:03:26;26.30;;;13.20;;
53034;SDS011;38923;53.236;6.506;2022-10-31T00:05:51;26.90;;;12.25;;
53034;SDS011;38923;53.236;6.506;2022-10-31T00:08:18;26.95;;;13.55;;
53034;SDS011;38923;53.236;6.506;2022-10-31T00:10:44;23.33;;;12.95;;
53034;SDS011;38923;53.236;6.506;2022-10-31T00:13:11;25.40;;;13.23;;
53034;SDS011;38923;53.236;6.506;2022-10-31T00:15:39;24.05;;;12.73;;
53034;SDS011;38923;53.236;6.506;2022-10-31T00:18:06;28.45;;;13.35;;
53034;SDS011;38923;53.236;6.506;2022-10-31T00:20:33;30.70;;;14.13;;
53034;SDS011;38923;53.236;6.506;2022-10-31T00:22:59;26.38;;;13.68;;
53034;SDS011;38923;53.236;6.506;2022-10-31T00:25:26;28.90;;;14.40;;
53034;SDS011;38923;53.236;6.506;2022-10-31T00:27:53;22.80;;;13.50;;
53034;SDS011;38923;53.236;6.506;2022-10-31T00:30:19;25.38;;;14.13;;
53034;SDS011;38923;53.236;6.506;2022-10-31T00:32:44;32.65;;;14.15;;
53034;SDS011;38923;53.236;6.506;2022-10-31T00:35:10;26.00;;;14.30;;
53034;SDS011;38923;53.236;6.506;2022-10-31T00:37:36;29.95;;;15.43;;
53034;SDS011;38923;53.236;6.506;2022-10-31T00:40:02;27.55;;;14.25;;
53034;SDS011;38923;53.236;6.506;2022-10-31T00:42:27;30.38;;;14.25;;
53034;SDS011;38923;53.236;6.506;2022-10-31T00:44:53;24.08;;;13.73;;
53034;SDS011;38923;53.236;6.506;2022-10-31T00:47:19;26.92;;;15.52;;
53034;SDS011;38923;53.236;6.506;2022-10-31T00:49:44;26.52;;;16.05;;
53034;SDS011;38923;53.236;6.506;2022-10-31T00:52:10;28.30;;;15.13;;
53034;SDS011;38923;53.236;6.506;2022-10-31T00:54:36;25.13;;;14.43;;
53034;SDS011;38923;53.236;6.506;2022-10-31T00:57:02;25.00;;;15.00;;
53034;SDS011;38923;53.236;6.506;2022-10-31T00:59:28;26.13;;;16.00;;
53034;SDS011;38923;53.236;6.506;2022-10-31T01:01:54;28.75;;;15.90;;
53034;SDS011;38923;53.236;6.506;2022-10-31T01:04:19;26.02;;;16.58;;
53034;SDS011;38923;53.236;6.506;2022-10-31T01:06:45;29.63;;;17.02;;
53034;SDS011;38923;53.236;6.506;2022-10-31T01:09:11;34.35;;;18.67;;
53034;SDS011;38923;53.236;6.506;2022-10-31T01:11:36;28.45;;;16.08;;
53034;SDS011;38923;53.236;6.506;2022-10-31T01:14:02;31.45;;;16.00;;
53034;SDS011;38923;53.236;6.506;2022-10-31T01:16:28;36.45;;;17.95;;
53034;SDS011;38923;53.236;6.506;2022-10-31T01:18:54;32.92;;;17.77;;
53034;SDS011;38923;53.236;6.506;2022-10-31T01:21:24;32.17;;;17.77;;
53034;SDS011;38923;53.236;6.506;2022-10-31T01:23:55;32.58;;;15.93;;
53034;SDS011;38923;53.236;6.506;2022-10-31T01:26:22;27.42;;;16.10;;
53034;SDS011;38923;53.236;6.506;2022-10-31T01:28:50;25.30;;;15.65;;
53034;SDS011;38923;53.236;6.506;2022-10-31T01:31:21;28.15;;;14.75;;
53034;SDS011;38923;53.236;6.506;2022-10-31T01:33:50;24.65;;;14.48;;
53034;SDS011;38923;53.236;6.506;2022-10-31T01:36:17;30.45;;;16.13;;
53034;SDS011;38923;53.236;6.506;2022-10-31T01:38:48;34.42;;;15.40;;
53034;SDS011;38923;53.236;6.506;2022-10-31T01:41:16;29.05;;;14.77;;
53034;SDS011;38923;53.236;6.506;2022-10-31T01:43:54;31.13;;;15.65;;
53034;SDS011;38923;53.236;6.506;2022-10-31T01:46:35;29.27;;;14.48;;
53034;SDS011;38923;53.236;6.506;2022-10-31T01:49:09;25.50;;;14.65;;
53034;SDS011;38923;53.236;6.506;2022-10-31T01:51:45;25.02;;;14.60;;
53034;SDS011;38923;53.236;6.506;2022-10-31T01:54:24;26.58;;;15.40;;
53034;SDS011;38923;53.236;6.506;2022-10-31T01:56:53;23.42;;;14.57;;
53034;SDS011;38923;53.236;6.506;2022-10-31T01:59:22;23.35;;;14.57;;
53034;SDS011;38923;53.236;6.506;2022-10-31T02:01:51;27.08;;;14.57;;
53034;SDS011;38923;53.236;6.506;2022-10-31T02:04:18;29.60;;;15.50;;
53034;SDS011;38923;53.236;6.506;2022-10-31T02:06:57;26.58;;;15.15;;
53034;SDS011;38923;53.236;6.506;2022-10-31T02:09:33;26.58;;;14.07;;
53034;SDS011;38923;53.236;6.506;2022-10-31T02:12:00;24.10;;;14.68;;
53034;SDS011;38923;53.236;6.506;2022-10-31T02:14:28;24.98;;;13.77;;
53034;SDS011;38923;53.236;6.506;2022-10-31T02:16:55;25.83;;;14.65;;
53034;SDS011;38923;53.236;6.506;2022-10-31T02:19:34;24.63;;;14.85;;
53034;SDS011;38923;53.236;6.506;2022-10-31T02:30:19;27.95;;;15.13;;
53034;SDS011;38923;53.236;6.506;2022-10-31T02:38:59;24.67;;;14.82;;
53034;SDS011;38923;53.236;6.506;2022-10-31T02:49:07;23.38;;;15.63;;
53034;SDS011;38923;53.236;6.506;2022-10-31T02:51:43;27.02;;;15.07;;
53034;SDS011;38923;53.236;6.506;2022-10-31T02:54:21;32.45;;;16.67;;
53034;SDS011;38923;53.236;6.506;2022-10-31T02:56:49;26.75;;;15.98;;
53034;SDS011;38923;53.236;6.506;2022-10-31T02:59:16;28.45;;;15.80;;
53034;SDS011;38923;53.236;6.506;2022-10-31T03:01:58;26.48;;;15.85;;
53034;SDS011;38923;53.236;6.506;2022-10-31T03:04:32;28.75;;;15.77;;
53034;SDS011;38923;53.236;6.506;2022-10-31T03:10:10;30.70;;;16.70;;
53034;SDS011;38923;53.236;6.506;2022-10-31T03:12:49;26.38;;;16.65;;
53034;SDS011;38923;53.236;6.506;2022-10-31T03:15:52;27.05;;;15.65;;
53034;SDS011;38923;53.236;6.506;2022-10-31T03:18:28;29.90;;;15.93;;
53034;SDS011;38923;53.236;6.506;2022-10-31T03:23:31;27.63;;;15.57;;
53034;SDS011;38923;53.236;6.506;2022-10-31T03:26:00;30.33;;;15.70;;
53034;SDS011;38923;53.236;6.506;2022-10-31T03:28:41;26.88;;;15.13;;
53034;SDS011;38923;53.236;6.506;2022-10-31T03:31:15;25.13;;;15.18;;
53034;SDS011;38923;53.236;6.506;2022-10-31T03:33:43;29.48;;;15.85;;
53034;SDS011;38923;53.236;6.506;2022-10-31T03:36:11;27.48;;;16.35;;
53034;SDS011;38923;53.236;6.506;2022-10-31T03:38:40;25.00;;;15.40;;
53034;SDS011;38923;53.236;6.506;2022-10-31T03:41:10;30.33;;;15.82;;
53034;SDS011;38923;53.236;6.506;2022-10-31T03:43:55;24.70;;;14.63;;
53034;SDS011;38923;53.236;6.506;2022-10-31T03:48:50;26.20;;;15.02;;
53034;SDS011;38923;53.236;6.506;2022-10-31T03:51:22;28.10;;;15.88;;
53034;SDS011;38923;53.236;6.506;2022-10-31T03:56:59;30.58;;;16.73;;
53034;SDS011;38923;53.236;6.506;2022-10-31T03:59:44;31.75;;;16.15;;
53034;SDS011;38923;53.236;6.506;2022-10-31T04:02:15;30.75;;;17.38;;
53034;SDS011;38923;53.236;6.506;2022-10-31T04:04:44;24.65;;;16.23;;
53034;SDS011;38923;53.236;6.506;2022-10-31T04:07:11;29.00;;;17.90;;
53034;SDS011;38923;53.236;6.506;2022-10-31T04:09:39;26.30;;;15.65;;
53034;SDS011;38923;53.236;6.506;2022-10-31T04:12:09;29.40;;;17.02;;
53034;SDS011;38923;53.236;6.506;2022-10-31T04:14:40;24.15;;;15.35;;
53034;SDS011;38923;53.236;6.506;2022-10-31T04:17:10;23.83;;;15.48;;
53034;SDS011;38923;53.236;6.506;2022-10-31T04:19:38;26.67;;;15.30;;
53034;SDS011;38923;53.236;6.506;2022-10-31T04:22:04;29.27;;;17.10;;
53034;SDS011;38923;53.236;6.506;2022-10-31T04:24:30;26.02;;;15.57;;
53034;SDS011;38923;53.236;6.506;2022-10-31T04:26:56;31.58;;;16.63;;
53034;SDS011;38923;53.236;6.506;2022-10-31T04:29:21;25.65;;;15.85;;
53034;SDS011;38923;53.236;6.506;2022-10-31T04:31:47;27.92;;;16.77;;
53034;SDS011;38923;53.236;6.506;2022-10-31T04:34:13;27.83;;;15.57;;
53034;SDS011;38923;53.236;6.506;2022-10-31T04:36:38;23.92;;;15.70;;
53034;SDS011;38923;53.236;6.506;2022-10-31T04:39:04;27.67;;;15.48;;
53034;SDS011;38923;53.236;6.506;2022-10-31T04:41:30;31.40;;;16.58;;
53034;SDS011;38923;53.236;6.506;2022-10-31T04:43:56;25.40;;;15.20;;
53034;SDS011;38923;53.236;6.506;2022-10-31T04:46:21;24.38;;;15.10;;
53034;SDS011;38923;53.236;6.506;2022-10-31T04:48:47;24.00;;;14.88;;
53034;SDS011;38923;53.236;6.506;2022-10-31T04:51:13;22.88;;;14.43;;
53034;SDS011;38923;53.236;6.506;2022-10-31T04:53:38;25.42;;;15.10;;
53034;SDS011;38923;53.236;6.506;2022-10-31T04:56:04;27.60;;;15.82;;
53034;SDS011;38923;53.236;6.506;2022-10-31T04:58:30;31.33;;;16.25;;
53034;SDS011;38923;53.236;6.506;2022-10-31T05:00:56;27.77;;;15.80;;
53034;SDS011;38923;53.236;6.506;2022-10-31T05:03:22;25.83;;;15.82;;
53034;SDS011;38923;53.236;6.506;2022-10-31T05:05:47;27.40;;;15.30;;
53034;SDS011;38923;53.236;6.506;2022-10-31T05:08:14;27.63;;;16.23;;
53034;SDS011;38923;53.236;6.506;2022-10-31T05:10:40;26.70;;;16.15;;
53034;SDS011;38923;53.236;6.506;2022-10-31T05:13:08;24.95;;;15.95;;
53034;SDS011;38923;53.236;6.506;2022-10-31T05:15:34;35.95;;;17.42;;
53034;SDS011;38923;53.236;6.506;2022-10-31T05:18:00;26.73;;;16.08;;
53034;SDS011;38923;53.236;6.506;2022-10-31T05:20:26;26.00;;;16.77;;
53034;SDS011;38923;53.236;6.506;2022-10-31T05:22:54;29.80;;;16.85;;
53034;SDS011;38923;53.236;6.506;2022-10-31T05:25:22;28.30;;;16.83;;
53034;SDS011;38923;53.236;6.506;2022-10-31T05:27:50;26.73;;;16.33;;
53034;SDS011;38923;53.236;6.506;2022-10-31T05:30:18;29.80;;;17.13;;
53034;SDS011;38923;53.236;6.506;2022-10-31T05:32:47;27.35;;;17.00;;
53034;SDS011;38923;53.236;6.506;2022-10-31T05:35:35;27.35;;;16.70;;
53034;SDS011;38923;53.236;6.506;2022-10-31T05:38:00;25.45;;;15.93;;
53034;SDS011;38923;53.236;6.506;2022-10-31T05:40:26;31.65;;;17.25;;
53034;SDS011;38923;53.236;6.506;2022-10-31T05:42:53;27.85;;;16.33;;
53034;SDS011;38923;53.236;6.506;2022-10-31T05:45:20;33.92;;;16.92;;
53034;SDS011;38923;53.236;6.506;2022-10-31T05:47:54;25.17;;;16.40;;
53034;SDS011;38923;53.236;6.506;2022-10-31T05:50:22;25.77;;;15.80;;
53034;SDS011;38923;53.236;6.506;2022-10-31T05:52:53;26.35;;;15.98;;
53034;SDS011;38923;53.236;6.506;2022-10-31T05:55:27;24.38;;;15.68;;
53034;SDS011;38923;53.236;6.506;2022-10-31T05:57:54;27.38;;;16.08;;
53034;SDS011;38923;53.236;6.506;2022-10-31T06:00:20;24.63;;;16.15;;
53034;SDS011;38923;53.236;6.506;2022-10-31T06:02:47;27.30;;;17.08;;
53034;SDS011;38923;53.236;6.506;2022-10-31T06:05:13;26.92;;;17.52;;
53034;SDS011;38923;53.236;6.506;2022-10-31T06:07:39;26.27;;;16.85;;
53034;SDS011;38923;53.236;6.506;2022-10-31T06:10:05;23.98;;;16.17;;
53034;SDS011;38923;53.236;6.506;2022-10-31T06:12:32;27.48;;;16.42;;
53034;SDS011;38923;53.236;6.506;2022-10-31T06:15:06;23.23;;;15.68;;
53034;SDS011;38923;53.236;6.506;2022-10-31T06:17:33;23.83;;;15.45;;
53034;SDS011;38923;53.236;6.506;2022-10-31T06:19:59;26.17;;;16.08;;
53034;SDS011;38923;53.236;6.506;2022-10-31T06:22:25;25.90;;;15.80;;
53034;SDS011;38923;53.236;6.506;2022-10-31T06:24:52;24.77;;;16.35;;
53034;SDS011;38923;53.236;6.506;2022-10-31T06:27:18;28.70;;;16.60;;
53034;SDS011;38923;53.236;6.506;2022-10-31T06:29:47;24.50;;;16.67;;
53034;SDS011;38923;53.236;6.506;2022-10-31T06:32:13;24.67;;;16.27;;
53034;SDS011;38923;53.236;6.506;2022-10-31T06:34:43;26.83;;;16.38;;
53034;SDS011;38923;53.236;6.506;2022-10-31T06:37:11;28.20;;;16.65;;
53034;SDS011;38923;53.236;6.506;2022-10-31T06:39:37;28.23;;;16.23;;
53034;SDS011;38923;53.236;6.506;2022-10-31T06:42:03;25.00;;;16.48;;
53034;SDS011;38923;53.236;6.506;2022-10-31T06:44:30;24.23;;;16.38;;
53034;SDS011;38923;53.236;6.506;2022-10-31T06:46:56;26.73;;;16.83;;
53034;SDS011;38923;53.236;6.506;2022-10-31T06:49:22;30.33;;;16.42;;
53034;SDS011;38923;53.236;6.506;2022-10-31T06:51:48;26.55;;;16.95;;
53034;SDS011;38923;53.236;6.506;2022-10-31T06:54:14;28.23;;;16.52;;
53034;SDS011;38923;53.236;6.506;2022-10-31T06:56:40;24.85;;;16.45;;
53034;SDS011;38923;53.236;6.506;2022-10-31T06:59:06;30.20;;;17.67;;
53034;SDS011;38923;53.236;6.506;2022-10-31T07:01:32;26.65;;;17.55;;
53034;SDS011;38923;53.236;6.506;2022-10-31T07:03:58;30.80;;;18.42;;
53034;SDS011;38923;53.236;6.506;2022-10-31T07:06:24;28.10;;;17.83;;
53034;SDS011;38923;53.236;6.506;2022-10-31T07:08:50;26.65;;;17.67;;
53034;SDS011;38923;53.236;6.506;2022-10-31T07:11:15;25.30;;;16.88;;
53034;SDS011;38923;53.236;6.506;2022-10-31T07:13:41;26.25;;;17.13;;
53034;SDS011;38923;53.236;6.506;2022-10-31T07:16:07;27.75;;;17.17;;
53034;SDS011;38923;53.236;6.506;2022-10-31T07:18:37;28.30;;;18.15;;
53034;SDS011;38923;53.236;6.506;2022-10-31T07:21:03;27.35;;;17.02;;
53034;SDS011;38923;53.236;6.506;2022-10-31T07:23:29;25.63;;;17.95;;
53034;SDS011;38923;53.236;6.506;2022-10-31T07:25:55;25.50;;;17.88;;
53034;SDS011;38923;53.236;6.506;2022-10-31T07:28:22;30.63;;;18.95;;
53034;SDS011;38923;53.236;6.506;2022-10-31T07:30:55;27.17;;;17.25;;
53034;SDS011;38923;53.236;6.506;2022-10-31T07:33:22;28.48;;;18.73;;
53034;SDS011;38923;53.236;6.506;2022-10-31T07:35:50;28.52;;;18.65;;
53034;SDS011;38923;53.236;6.506;2022-10-31T07:38:16;32.10;;;20.33;;
53034;SDS011;38923;53.236;6.506;2022-10-31T07:40:42;28.95;;;19.10;;
53034;SDS011;38923;53.236;6.506;2022-10-31T07:43:09;30.48;;;19.30;;
53034;SDS011;38923;53.236;6.506;2022-10-31T07:45:36;29.00;;;19.75;;
53034;SDS011;38923;53.236;6.506;2022-10-31T07:48:02;32.67;;;20.30;;
53034;SDS011;38923;53.236;6.506;2022-10-31T07:50:29;32.22;;;20.25;;
53034;SDS011;38923;53.236;6.506;2022-10-31T07:55:32;27.65;;;19.60;;
53034;SDS011;38923;53.236;6.506;2022-10-31T08:00:35;34.10;;;20.60;;
53034;SDS011;38923;53.236;6.506;2022-10-31T08:05:31;31.35;;;21.17;;
53034;SDS011;38923;53.236;6.506;2022-10-31T08:07:58;38.08;;;21.02;;
53034;SDS011;38923;53.236;6.506;2022-10-31T08:10:24;34.00;;;19.75;;
53034;SDS011;38923;53.236;6.506;2022-10-31T08:12:54;34.05;;;20.70;;
53034;SDS011;38923;53.236;6.506;2022-10-31T08:15:22;33.88;;;20.98;;
53034;SDS011;38923;53.236;6.506;2022-10-31T08:17:48;33.78;;;19.85;;
53034;SDS011;38923;53.236;6.506;2022-10-31T08:20:14;35.80;;;19.42;;
53034;SDS011;38923;53.236;6.506;2022-10-31T08:22:39;33.88;;;20.35;;
53034;SDS011;38923;53.236;6.506;2022-10-31T08:25:05;29.13;;;19.95;;
53034;SDS011;38923;53.236;6.506;2022-10-31T08:27:31;36.38;;;21.00;;
53034;SDS011;38923;53.236;6.506;2022-10-31T08:29:57;33.58;;;20.17;;
53034;SDS011;38923;53.236;6.506;2022-10-31T08:32:23;35.45;;;19.95;;
53034;SDS011;38923;53.236;6.506;2022-10-31T08:34:49;31.98;;;19.95;;
53034;SDS011;38923;53.236;6.506;2022-10-31T08:37:15;26.98;;;19.17;;
53034;SDS011;38923;53.236;6.506;2022-10-31T08:39:47;29.33;;;20.02;;
53034;SDS011;38923;53.236;6.506;2022-10-31T08:42:13;35.88;;;20.15;;
53034;SDS011;38923;53.236;6.506;2022-10-31T08:44:39;32.20;;;19.23;;
53034;SDS011;38923;53.236;6.506;2022-10-31T08:47:05;28.15;;;19.15;;
53034;SDS011;38923;53.236;6.506;2022-10-31T08:49:30;28.13;;;18.48;;
53034;SDS011;38923;53.236;6.506;2022-10-31T08:51:56;28.90;;;19.13;;
53034;SDS011;38923;53.236;6.506;2022-10-31T08:54:22;29.75;;;18.85;;
53034;SDS011;38923;53.236;6.506;2022-10-31T08:56:48;28.77;;;18.88;;
53034;SDS011;38923;53.236;6.506;2022-10-31T08:59:18;28.42;;;18.73;;
53034;SDS011;38923;53.236;6.506;2022-10-31T09:01:44;28.60;;;19.10;;
53034;SDS011;38923;53.236;6.506;2022-10-31T09:04:10;29.98;;;19.55;;
53034;SDS011;38923;53.236;6.506;2022-10-31T09:06:36;30.42;;;18.38;;
53034;SDS011;38923;53.236;6.506;2022-10-31T09:09:02;29.83;;;17.52;;
53034;SDS011;38923;53.236;6.506;2022-10-31T09:11:29;28.33;;;18.17;;
53034;SDS011;38923;53.236;6.506;2022-10-31T09:13:55;27.40;;;17.50;;
53034;SDS011;38923;53.236;6.506;2022-10-31T09:16:21;26.60;;;16.05;;
53034;SDS011;38923;53.236;6.506;2022-10-31T09:18:47;25.73;;;16.50;;
53034;SDS011;38923;53.236;6.506;2022-10-31T09:21:12;26.20;;;16.88;;
53034;SDS011;38923;53.236;6.506;2022-10-31T09:23:38;28.95;;;16.17;;
53034;SDS011;38923;53.236;6.506;2022-10-31T09:26:04;36.75;;;18.05;;
53034;SDS011;38923;53.236;6.506;2022-10-31T09:28:30;27.70;;;16.70;;
53034;SDS011;38923;53.236;6.506;2022-10-31T09:30:57;24.17;;;16.73;;
53034;SDS011;38923;53.236;6.506;2022-10-31T09:33:22;23.10;;;16.00;;
53034;SDS011;38923;53.236;6.506;2022-10-31T09:35:48;22.70;;;15.90;;
53034;SDS011;38923;53.236;6.506;2022-10-31T09:38:15;22.05;;;15.30;;
53034;SDS011;38923;53.236;6.506;2022-10-31T09:46:01;24.95;;;16.15;;
53034;SDS011;38923;53.236;6.506;2022-10-31T09:51:36;24.17;;;14.95;;
53034;SDS011;38923;53.236;6.506;2022-10-31T09:54:16;22.67;;;15.55;;
53034;SDS011;38923;53.236;6.506;2022-10-31T09:57:01;23.40;;;15.02;;
53034;SDS011;38923;53.236;6.506;2022-10-31T09:59:34;17.02;;;13.00;;
53034;SDS011;38923;53.236;6.506;2022-10-31T10:05:01;20.58;;;13.30;;
53034;SDS011;38923;53.236;6.506;2022-10-31T10:10:13;23.80;;;13.70;;
53034;SDS011;38923;53.236;6.506;2022-10-31T10:15:40;19.95;;;12.82;;
53034;SDS011;38923;53.236;6.506;2022-10-31T10:24:32;19.45;;;14.02;;
53034;SDS011;38923;53.236;6.506;2022-10-31T10:27:14;21.02;;;12.93;;
53034;SDS011;38923;53.236;6.506;2022-10-31T10:29:53;20.60;;;13.57;;
53034;SDS011;38923;53.236;6.506;2022-10-31T10:32:27;16.40;;;11.52;;
53034;SDS011;38923;53.236;6.506;2022-10-31T10:34:58;19.50;;;12.03;;
53034;SDS011;38923;53.236;6.506;2022-10-31T10:37:39;24.98;;;13.50;;
53034;SDS011;38923;53.236;6.506;2022-10-31T10:40:11;23.15;;;13.05;;
53034;SDS011;38923;53.236;6.506;2022-10-31T10:42:41;20.83;;;12.60;;
53034;SDS011;38923;53.236;6.506;2022-10-31T10:46:38;18.67;;;11.85;;
53034;SDS011;38923;53.236;6.506;2022-10-31T10:54:59;17.67;;;12.63;;
53034;SDS011;38923;53.236;6.506;2022-10-31T11:00:26;21.17;;;14.65;;
53034;SDS011;38923;53.236;6.506;2022-10-31T11:03:06;27.92;;;13.85;;
53034;SDS011;38923;53.236;6.506;2022-10-31T11:05:46;22.38;;;13.85;;
53034;SDS011;38923;53.236;6.506;2022-10-31T11:08:27;27.17;;;15.18;;
53034;SDS011;38923;53.236;6.506;2022-10-31T11:11:01;23.85;;;14.50;;
53034;SDS011;38923;53.236;6.506;2022-10-31T11:13:40;19.85;;;14.43;;
53034;SDS011;38923;53.236;6.506;2022-10-31T11:18:39;23.90;;;15.27;;
53034;SDS011;38923;53.236;6.506;2022-10-31T11:21:20;24.17;;;15.00;;
53034;SDS011;38923;53.236;6.506;2022-10-31T11:27:02;23.85;;;14.02;;
53034;SDS011;38923;53.236;6.506;2022-10-31T11:29:49;20.08;;;13.50;;
53034;SDS011;38923;53.236;6.506;2022-10-31T11:32:22;19.52;;;13.73;;
53034;SDS011;38923;53.236;6.506;2022-10-31T11:34:52;20.17;;;13.52;;
53034;SDS011;38923;53.236;6.506;2022-10-31T11:37:21;20.55;;;12.52;;
53034;SDS011;38923;53.236;6.506;2022-10-31T11:39:52;23.88;;;14.23;;
53034;SDS011;38923;53.236;6.506;2022-10-31T11:42:21;24.98;;;14.82;;
53034;SDS011;38923;53.236;6.506;2022-10-31T11:44:49;25.65;;;14.10;;
53034;SDS011;38923;53.236;6.506;2022-10-31T11:47:16;18.10;;;12.60;;
53034;SDS011;38923;53.236;6.506;2022-10-31T11:49:52;18.30;;;12.10;;
53034;SDS011;38923;53.236;6.506;2022-10-31T11:52:27;22.30;;;12.15;;
53034;SDS011;38923;53.236;6.506;2022-10-31T11:54:59;20.50;;;12.25;;
53034;SDS011;38923;53.236;6.506;2022-10-31T12:00:47;17.95;;;10.35;;
53034;SDS011;38923;53.236;6.506;2022-10-31T12:05:44;15.05;;;10.02;;
53034;SDS011;38923;53.236;6.506;2022-10-31T12:08:11;15.60;;;9.80;;
53034;SDS011;38923;53.236;6.506;2022-10-31T12:16:00;12.25;;;7.50;;
53034;SDS011;38923;53.236;6.506;2022-10-31T12:29:01;13.50;;;5.45;;
53034;SDS011;38923;53.236;6.506;2022-10-31T12:50:57;9.43;;;4.70;;
53034;SDS011;38923;53.236;6.506;2022-10-31T12:58:38;12.80;;;5.90;;
53034;SDS011;38923;53.236;6.506;2022-10-31T13:01:21;13.35;;;6.13;;
53034;SDS011;38923;53.236;6.506;2022-10-31T13:03:58;13.95;;;6.28;;
53034;SDS011;38923;53.236;6.506;2022-10-31T13:06:34;19.35;;;6.78;;
53034;SDS011;38923;53.236;6.506;2022-10-31T13:09:10;15.57;;;5.97;;
53034;SDS011;38923;53.236;6.506;2022-10-31T13:12:00;13.77;;;5.87;;
53034;SDS011;38923;53.236;6.506;2022-10-31T13:14:32;15.68;;;5.70;;
53034;SDS011;38923;53.236;6.506;2022-10-31T13:17:03;14.38;;;6.03;;
53034;SDS011;38923;53.236;6.506;2022-10-31T13:19:38;11.77;;;4.70;;
53034;SDS011;38923;53.236;6.506;2022-10-31T13:22:16;11.95;;;4.32;;
53034;SDS011;38923;53.236;6.506;2022-10-31T13:28:23;14.13;;;4.03;;
53034;SDS011;38923;53.236;6.506;2022-10-31T13:30:25;620.60;;;52.03;;
53034;SDS011;38923;53.236;6.506;2022-10-31T13:41:09;8.27;;;3.83;;
53034;SDS011;38923;53.236;6.506;2022-10-31T13:46:39;14.27;;;3.72;;
53034;SDS011;38923;53.236;6.506;2022-10-31T13:49:36;10.07;;;3.33;;
53034;SDS011;38923;53.236;6.506;2022-10-31T13:54:46;12.07;;;3.50;;
53034;SDS011;38923;53.236;6.506;2022-10-31T14:02:49;13.93;;;4.05;;
53034;SDS011;38923;53.236;6.506;2022-10-31T14:05:33;9.95;;;3.47;;
53034;SDS011;38923;53.236;6.506;2022-10-31T14:08:04;8.73;;;2.97;;
53034;SDS011;38923;53.236;6.506;2022-10-31T14:10:46;14.27;;;3.45;;
53034;SDS011;38923;53.236;6.506;2022-10-31T14:13:15;9.70;;;3.47;;
53034;SDS011;38923;53.236;6.506;2022-10-31T14:15:42;9.75;;;3.63;;
53034;SDS011;38923;53.236;6.506;2022-10-31T14:18:33;8.98;;;3.30;;
53034;SDS011;38923;53.236;6.506;2022-10-31T14:21:13;9.63;;;3.10;;
53034;SDS011;38923;53.236;6.506;2022-10-31T14:23:52;9.73;;;3.80;;
53034;SDS011;38923;53.236;6.506;2022-10-31T14:28:51;18.00;;;4.43;;
53034;SDS011;38923;53.236;6.506;2022-10-31T14:31:27;10.00;;;4.00;;
53034;SDS011;38923;53.236;6.506;2022-10-31T14:33:54;15.50;;;5.03;;
53034;SDS011;38923;53.236;6.506;2022-10-31T14:39:01;13.55;;;5.03;;
53034;SDS011;38923;53.236;6.506;2022-10-31T14:41:50;15.77;;;5.38;;
53034;SDS011;38923;53.236;6.506;2022-10-31T14:52:19;15.48;;;6.70;;
53034;SDS011;38923;53.236;6.506;2022-10-31T14:54:48;18.08;;;5.75;;
53034;SDS011;38923;53.236;6.506;2022-10-31T14:57:22;16.88;;;5.75;;
53034;SDS011;38923;53.236;6.506;2022-10-31T14:59:55;14.50;;;5.55;;
53034;SDS011;38923;53.236;6.506;2022-10-31T15:02:27;18.98;;;6.50;;
53034;SDS011;38923;53.236;6.506;2022-10-31T15:04:59;16.00;;;5.18;;
53034;SDS011;38923;53.236;6.506;2022-10-31T15:07:26;12.82;;;5.10;;
53034;SDS011;38923;53.236;6.506;2022-10-31T15:09:56;14.65;;;5.45;;
53034;SDS011;38923;53.236;6.506;2022-10-31T15:12:27;14.38;;;5.38;;
53034;SDS011;38923;53.236;6.506;2022-10-31T15:14:55;15.52;;;5.50;;
53034;SDS011;38923;53.236;6.506;2022-10-31T15:17:22;10.80;;;5.22;;
53034;SDS011;38923;53.236;6.506;2022-10-31T15:19:49;11.57;;;5.40;;
53034;SDS011;38923;53.236;6.506;2022-10-31T15:22:17;11.77;;;5.18;;
53034;SDS011;38923;53.236;6.506;2022-10-31T15:24:44;13.10;;;5.45;;
53034;SDS011;38923;53.236;6.506;2022-10-31T15:27:12;11.32;;;5.45;;
53034;SDS011;38923;53.236;6.506;2022-10-31T15:29:47;16.33;;;6.35;;
53034;SDS011;38923;53.236;6.506;2022-10-31T15:32:21;16.10;;;6.43;;
53034;SDS011;38923;53.236;6.506;2022-10-31T15:34:48;14.68;;;6.75;;
53034;SDS011;38923;53.236;6.506;2022-10-31T15:37:17;16.17;;;5.88;;
53034;SDS011;38923;53.236;6.506;2022-10-31T15:39:44;14.68;;;7.30;;
53034;SDS011;38923;53.236;6.506;2022-10-31T15:44:48;16.92;;;7.00;;
53034;SDS011;38923;53.236;6.506;2022-10-31T15:47:22;18.42;;;7.30;;
53034;SDS011;38923;53.236;6.506;2022-10-31T15:49:52;14.98;;;7.72;;
53034;SDS011;38923;53.236;6.506;2022-10-31T15:54:55;15.45;;;8.02;;
53034;SDS011;38923;53.236;6.506;2022-10-31T15:57:26;24.43;;;10.07;;
53034;SDS011;38923;53.236;6.506;2022-10-31T15:59:52;16.67;;;9.75;;
53034;SDS011;38923;53.236;6.506;2022-10-31T16:02:21;19.92;;;9.68;;
53034;SDS011;38923;53.236;6.506;2022-10-31T16:04:58;17.23;;;8.98;;
53034;SDS011;38923;53.236;6.506;2022-10-31T16:07:28;16.92;;;9.65;;
53034;SDS011;38923;53.236;6.506;2022-10-31T16:10:01;17.67;;;9.70;;
53034;SDS011;38923;53.236;6.506;2022-10-31T16:12:35;19.80;;;10.07;;
53034;SDS011;38923;53.236;6.506;2022-10-31T16:15:03;20.00;;;10.57;;
53034;SDS011;38923;53.236;6.506;2022-10-31T16:17:30;20.65;;;10.60;;
53034;SDS011;38923;53.236;6.506;2022-10-31T16:19:58;18.27;;;9.95;;
53034;SDS011;38923;53.236;6.506;2022-10-31T16:22:35;19.85;;;9.77;;
53034;SDS011;38923;53.236;6.506;2022-10-31T16:25:05;17.05;;;10.05;;
53034;SDS011;38923;53.236;6.506;2022-10-31T16:27:39;17.15;;;9.75;;
53034;SDS011;38923;53.236;6.506;2022-10-31T16:35:54;19.08;;;9.70;;
53034;SDS011;38923;53.236;6.506;2022-10-31T16:38:21;18.60;;;9.02;;
53034;SDS011;38923;53.236;6.506;2022-10-31T16:40:48;14.95;;;9.02;;
53034;SDS011;38923;53.236;6.506;2022-10-31T16:43:16;15.65;;;8.35;;
53034;SDS011;38923;53.236;6.506;2022-10-31T16:45:47;15.00;;;7.65;;
53034;SDS011;38923;53.236;6.506;2022-10-31T16:48:15;18.23;;;8.80;;
53034;SDS011;38923;53.236;6.506;2022-10-31T16:50:46;13.07;;;7.00;;
53034;SDS011;38923;53.236;6.506;2022-10-31T16:53:13;14.93;;;8.38;;
53034;SDS011;38923;53.236;6.506;2022-10-31T16:55:54;15.55;;;7.65;;
53034;SDS011;38923;53.236;6.506;2022-10-31T16:58:25;15.88;;;8.40;;
53034;SDS011;38923;53.236;6.506;2022-10-31T17:00:59;16.88;;;7.72;;
53034;SDS011;38923;53.236;6.506;2022-10-31T17:03:26;12.45;;;7.55;;
53034;SDS011;38923;53.236;6.506;2022-10-31T17:05:52;15.90;;;8.57;;
53034;SDS011;38923;53.236;6.506;2022-10-31T17:08:20;13.10;;;8.25;;
53034;SDS011;38923;53.236;6.506;2022-10-31T17:10:46;15.57;;;8.68;;
53034;SDS011;38923;53.236;6.506;2022-10-31T17:13:20;16.25;;;8.73;;
53034;SDS011;38923;53.236;6.506;2022-10-31T17:15:51;12.93;;;8.55;;
53034;SDS011;38923;53.236;6.506;2022-10-31T17:18:19;15.32;;;8.77;;
53034;SDS011;38923;53.236;6.506;2022-10-31T17:20:45;16.17;;;9.93;;
53034;SDS011;38923;53.236;6.506;2022-10-31T17:23:12;16.60;;;9.60;;
53034;SDS011;38923;53.236;6.506;2022-10-31T17:25:39;19.77;;;11.63;;
53034;SDS011;38923;53.236;6.506;2022-10-31T17:28:05;20.20;;;10.75;;
53034;SDS011;38923;53.236;6.506;2022-10-31T17:30:31;19.55;;;11.23;;
53034;SDS011;38923;53.236;6.506;2022-10-31T17:32:58;17.13;;;11.15;;